sensor_id;sensor_type;location;lat;lon;timestamp;temperature;humidity
9151;DHT22;4610;50.006;7.490;2023-04-06T00:00:24;0.10;99.90
9151;DHT22;4610;50.006;7.490;2023-04-06T00:02:51;0.10;99.90
9151;DHT22;4610;50.006;7.490;2023-04-06T00:05:18;0.00;99.90
9151;DHT22;4610;50.006;7.490;2023-04-06T00:07:46;0.00;99.90
9151;DHT22;4610;50.006;7.490;2023-04-06T00:10:15;0.00;99.90
9151;DHT22;4610;50.006;7.490;2023-04-06T00:12:42;0.00;99.90
9151;DHT22;4610;50.006;7.490;2023-04-06T00:15:10;0.00;99.90
9151;DHT22;4610;50.006;7.490;2023-04-06T00:17:37;0.10;99.90
9151;DHT22;4610;50.006;7.490;2023-04-06T00:20:04;0.10;99.90
9151;DHT22;4610;50.006;7.490;2023-04-06T00:22:33;0.10;99.90
9151;DHT22;4610;50.006;7.490;2023-04-06T00:25:00;0.00;99.90
9151;DHT22;4610;50.006;7.490;2023-04-06T00:27:28;0.00;99.90
9151;DHT22;4610;50.006;7.490;2023-04-06T00:29:55;0.00;99.90
9151;DHT22;4610;50.006;7.490;2023-04-06T00:32:22;0.00;99.90
9151;DHT22;4610;50.006;7.490;2023-04-06T00:34:49;0.00;99.90
9151;DHT22;4610;50.006;7.490;2023-04-06T00:37:16;0.00;99.90
9151;DHT22;4610;50.006;7.490;2023-04-06T00:39:43;-0.10;99.90
9151;DHT22;4610;50.006;7.490;2023-04-06T00:42:11;-0.10;99.90
9151;DHT22;4610;50.006;7.490;2023-04-06T00:44:41;-0.20;99.90
9151;DHT22;4610;50.006;7.490;2023-04-06T00:47:08;-0.20;99.90
9151;DHT22;4610;50.006;7.490;2023-04-06T00:49:35;-0.20;99.90
9151;DHT22;4610;50.006;7.490;2023-04-06T00:52:02;-0.20;99.90
9151;DHT22;4610;50.006;7.490;2023-04-06T00:54:29;-0.10;99.90
9151;DHT22;4610;50.006;7.490;2023-04-06T00:56:57;-0.20;99.90
9151;DHT22;4610;50.006;7.490;2023-04-06T00:59:24;-0.10;99.90
9151;DHT22;4610;50.006;7.490;2023-04-06T01:01:52;-0.20;99.90
9151;DHT22;4610;50.006;7.490;2023-04-06T01:04:19;-0.20;99.90
9151;DHT22;4610;50.006;7.490;2023-04-06T01:06:48;-0.30;99.90
9151;DHT22;4610;50.006;7.490;2023-04-06T01:09:15;-0.30;99.90
9151;DHT22;4610;50.006;7.490;2023-04-06T01:11:42;-0.30;99.90
9151;DHT22;4610;50.006;7.490;2023-04-06T01:14:09;-0.30;99.90
9151;DHT22;4610;50.006;7.490;2023-04-06T01:16:36;-0.30;99.90
9151;DHT22;4610;50.006;7.490;2023-04-06T01:19:08;-0.40;99.90
9151;DHT22;4610;50.006;7.490;2023-04-06T01:21:36;-0.40;99.90
9151;DHT22;4610;50.006;7.490;2023-04-06T01:24:05;-0.50;99.90
9151;DHT22;4610;50.006;7.490;2023-04-06T01:26:33;-0.60;99.90
9151;DHT22;4610;50.006;7.490;2023-04-06T01:29:01;-0.60;99.90
9151;DHT22;4610;50.006;7.490;2023-04-06T01:31:28;-0.70;99.90
9151;DHT22;4610;50.006;7.490;2023-04-06T01:33:55;-0.60;99.90
9151;DHT22;4610;50.006;7.490;2023-04-06T01:36:22;-0.60;99.90
9151;DHT22;4610;50.006;7.490;2023-04-06T01:38:49;-0.60;99.90
9151;DHT22;4610;50.006;7.490;2023-04-06T01:41:17;-0.60;99.90
9151;DHT22;4610;50.006;7.490;2023-04-06T01:43:45;-0.60;99.90
9151;DHT22;4610;50.006;7.490;2023-04-06T01:46:12;-0.70;99.90
9151;DHT22;4610;50.006;7.490;2023-04-06T01:48:39;-0.60;99.90
9151;DHT22;4610;50.006;7.490;2023-04-06T01:51:06;-0.70;99.90
9151;DHT22;4610;50.006;7.490;2023-04-06T01:53:33;-0.70;99.90
9151;DHT22;4610;50.006;7.490;2023-04-06T01:56:00;-0.60;99.90
9151;DHT22;4610;50.006;7.490;2023-04-06T01:58:28;-0.50;99.90
9151;DHT22;4610;50.006;7.490;2023-04-06T02:00:55;-0.50;99.90
9151;DHT22;4610;50.006;7.490;2023-04-06T02:03:22;-0.50;99.90
9151;DHT22;4610;50.006;7.490;2023-04-06T02:05:49;-0.60;99.90
9151;DHT22;4610;50.006;7.490;2023-04-06T02:08:16;-0.70;99.90
9151;DHT22;4610;50.006;7.490;2023-04-06T02:10:43;-0.70;99.90
9151;DHT22;4610;50.006;7.490;2023-04-06T02:13:09;-0.70;99.90
9151;DHT22;4610;50.006;7.490;2023-04-06T02:15:38;-0.80;99.90
9151;DHT22;4610;50.006;7.490;2023-04-06T02:18:05;-0.90;99.90
9151;DHT22;4610;50.006;7.490;2023-04-06T02:20:32;-0.90;99.90
9151;DHT22;4610;50.006;7.490;2023-04-06T02:22:59;-1.00;99.90
9151;DHT22;4610;50.006;7.490;2023-04-06T02:25:26;-1.00;99.90
9151;DHT22;4610;50.006;7.490;2023-04-06T02:27:53;-0.90;99.90
9151;DHT22;4610;50.006;7.490;2023-04-06T02:30:20;-0.90;99.90
9151;DHT22;4610;50.006;7.490;2023-04-06T02:32:49;-0.90;99.90
9151;DHT22;4610;50.006;7.490;2023-04-06T02:35:16;-0.90;99.90
9151;DHT22;4610;50.006;7.490;2023-04-06T02:37:43;-0.80;99.90
9151;DHT22;4610;50.006;7.490;2023-04-06T02:40:10;-0.80;99.90
9151;DHT22;4610;50.006;7.490;2023-04-06T02:42:37;-0.80;99.90
9151;DHT22;4610;50.006;7.490;2023-04-06T02:45:05;-0.80;99.90
9151;DHT22;4610;50.006;7.490;2023-04-06T02:47:32;-0.80;99.90
9151;DHT22;4610;50.006;7.490;2023-04-06T02:50:01;-0.90;99.90
9151;DHT22;4610;50.006;7.490;2023-04-06T02:52:28;-1.00;99.90
9151;DHT22;4610;50.006;7.490;2023-04-06T02:54:55;-1.10;99.90
9151;DHT22;4610;50.006;7.490;2023-04-06T02:57:22;-1.10;99.90
9151;DHT22;4610;50.006;7.490;2023-04-06T02:59:49;-1.10;99.90
9151;DHT22;4610;50.006;7.490;2023-04-06T03:02:16;-1.10;99.90
9151;DHT22;4610;50.006;7.490;2023-04-06T03:04:44;-1.20;99.90
9151;DHT22;4610;50.006;7.490;2023-04-06T03:07:13;-1.20;99.90
9151;DHT22;4610;50.006;7.490;2023-04-06T03:09:40;-1.20;99.90
9151;DHT22;4610;50.006;7.490;2023-04-06T03:12:07;-1.20;99.90
9151;DHT22;4610;50.006;7.490;2023-04-06T03:14:34;-1.30;99.90
9151;DHT22;4610;50.006;7.490;2023-04-06T03:17:00;-1.30;99.90
9151;DHT22;4610;50.006;7.490;2023-04-06T03:19:27;-1.30;99.90
9151;DHT22;4610;50.006;7.490;2023-04-06T03:21:54;-1.30;99.90
9151;DHT22;4610;50.006;7.490;2023-04-06T03:24:23;-1.30;99.90
9151;DHT22;4610;50.006;7.490;2023-04-06T03:26:50;-1.40;99.90
9151;DHT22;4610;50.006;7.490;2023-04-06T03:29:17;-1.40;99.90
9151;DHT22;4610;50.006;7.490;2023-04-06T03:31:43;-1.40;99.90
9151;DHT22;4610;50.006;7.490;2023-04-06T03:34:10;-1.40;99.90
9151;DHT22;4610;50.006;7.490;2023-04-06T03:36:37;-1.40;99.90
9151;DHT22;4610;50.006;7.490;2023-04-06T03:39:04;-1.40;99.90
9151;DHT22;4610;50.006;7.490;2023-04-06T03:41:32;-1.40;99.90
9151;DHT22;4610;50.006;7.490;2023-04-06T03:43:59;-1.40;99.90
9151;DHT22;4610;50.006;7.490;2023-04-06T03:46:26;-1.40;99.90
9151;DHT22;4610;50.006;7.490;2023-04-06T03:48:53;-1.40;99.90
9151;DHT22;4610;50.006;7.490;2023-04-06T03:51:20;-1.50;99.90
9151;DHT22;4610;50.006;7.490;2023-04-06T03:53:47;-1.50;99.90
9151;DHT22;4610;50.006;7.490;2023-04-06T03:56:14;-1.50;99.90
9151;DHT22;4610;50.006;7.490;2023-04-06T03:58:42;-1.60;99.90
9151;DHT22;4610;50.006;7.490;2023-04-06T04:01:10;-1.50;99.90
9151;DHT22;4610;50.006;7.490;2023-04-06T04:03:37;-1.50;99.90
9151;DHT22;4610;50.006;7.490;2023-04-06T04:06:04;-1.50;99.90
9151;DHT22;4610;50.006;7.490;2023-04-06T04:08:31;-1.50;99.90
9151;DHT22;4610;50.006;7.490;2023-04-06T04:10:58;-1.60;99.90
9151;DHT22;4610;50.006;7.490;2023-04-06T04:13:25;-1.70;99.90
9151;DHT22;4610;50.006;7.490;2023-04-06T04:15:53;-1.80;99.90
9151;DHT22;4610;50.006;7.490;2023-04-06T04:18:20;-1.70;99.90
9151;DHT22;4610;50.006;7.490;2023-04-06T04:20:47;-1.70;99.90
9151;DHT22;4610;50.006;7.490;2023-04-06T04:23:14;-1.70;99.90
9151;DHT22;4610;50.006;7.490;2023-04-06T04:25:41;-1.60;99.90
9151;DHT22;4610;50.006;7.490;2023-04-06T04:28:08;-1.50;99.90
9151;DHT22;4610;50.006;7.490;2023-04-06T04:30:34;-1.60;99.90
9151;DHT22;4610;50.006;7.490;2023-04-06T04:33:03;-1.70;99.90
9151;DHT22;4610;50.006;7.490;2023-04-06T04:35:30;-1.80;99.90
9151;DHT22;4610;50.006;7.490;2023-04-06T04:37:57;-1.80;99.90
9151;DHT22;4610;50.006;7.490;2023-04-06T04:40:24;-1.80;99.90
9151;DHT22;4610;50.006;7.490;2023-04-06T04:42:51;-1.80;99.90
9151;DHT22;4610;50.006;7.490;2023-04-06T04:45:17;-1.80;99.90
9151;DHT22;4610;50.006;7.490;2023-04-06T04:47:44;-1.70;99.90
9151;DHT22;4610;50.006;7.490;2023-04-06T04:50:13;-1.80;99.90
9151;DHT22;4610;50.006;7.490;2023-04-06T04:52:40;-1.80;99.90
9151;DHT22;4610;50.006;7.490;2023-04-06T04:55:07;-1.80;99.90
9151;DHT22;4610;50.006;7.490;2023-04-06T04:57:34;-1.80;99.90
9151;DHT22;4610;50.006;7.490;2023-04-06T05:00:01;-1.70;99.90
9151;DHT22;4610;50.006;7.490;2023-04-06T05:02:28;-1.70;99.90
9151;DHT22;4610;50.006;7.490;2023-04-06T05:04:55;-1.80;99.90
9151;DHT22;4610;50.006;7.490;2023-04-06T05:07:23;-1.80;99.90
9151;DHT22;4610;50.006;7.490;2023-04-06T05:09:50;-1.70;99.90
9151;DHT22;4610;50.006;7.490;2023-04-06T05:12:18;-1.70;99.90
9151;DHT22;4610;50.006;7.490;2023-04-06T05:14:45;-1.60;99.90
9151;DHT22;4610;50.006;7.490;2023-04-06T05:17:12;-1.60;99.90
9151;DHT22;4610;50.006;7.490;2023-04-06T05:19:39;-1.50;99.90
9151;DHT22;4610;50.006;7.490;2023-04-06T05:22:06;-1.40;99.90
9151;DHT22;4610;50.006;7.490;2023-04-06T05:24:34;-1.40;99.90
9151;DHT22;4610;50.006;7.490;2023-04-06T05:27:02;-1.30;99.90
9151;DHT22;4610;50.006;7.490;2023-04-06T05:29:29;-0.60;99.90
9151;DHT22;4610;50.006;7.490;2023-04-06T05:31:56;-0.60;99.90
9151;DHT22;4610;50.006;7.490;2023-04-06T05:34:23;-0.70;99.90
9151;DHT22;4610;50.006;7.490;2023-04-06T05:36:50;-0.60;99.90
9151;DHT22;4610;50.006;7.490;2023-04-06T05:39:17;-0.40;99.90
9151;DHT22;4610;50.006;7.490;2023-04-06T05:41:45;0.00;99.90
9151;DHT22;4610;50.006;7.490;2023-04-06T05:44:12;0.50;99.90
9151;DHT22;4610;50.006;7.490;2023-04-06T05:46:39;1.10;99.90
9151;DHT22;4610;50.006;7.490;2023-04-06T05:49:06;1.70;99.90
9151;DHT22;4610;50.006;7.490;2023-04-06T05:51:33;2.20;99.90
9151;DHT22;4610;50.006;7.490;2023-04-06T05:54:00;2.60;99.90
9151;DHT22;4610;50.006;7.490;2023-04-06T05:56:27;3.20;99.90
9151;DHT22;4610;50.006;7.490;2023-04-06T05:58:57;3.60;99.90
9151;DHT22;4610;50.006;7.490;2023-04-06T06:01:24;3.70;99.90
9151;DHT22;4610;50.006;7.490;2023-04-06T06:03:51;4.00;99.90
9151;DHT22;4610;50.006;7.490;2023-04-06T06:06:17;4.20;99.90
9151;DHT22;4610;50.006;7.490;2023-04-06T06:08:44;4.60;99.90
9151;DHT22;4610;50.006;7.490;2023-04-06T06:11:11;4.80;99.90
9151;DHT22;4610;50.006;7.490;2023-04-06T06:13:38;5.00;99.90
9151;DHT22;4610;50.006;7.490;2023-04-06T06:16:07;5.50;99.90
9151;DHT22;4610;50.006;7.490;2023-04-06T06:18:34;5.70;99.90
9151;DHT22;4610;50.006;7.490;2023-04-06T06:21:02;6.10;99.90
9151;DHT22;4610;50.006;7.490;2023-04-06T06:23:29;6.50;99.90
9151;DHT22;4610;50.006;7.490;2023-04-06T06:25:56;6.70;99.90
9151;DHT22;4610;50.006;7.490;2023-04-06T06:28:23;6.90;99.90
9151;DHT22;4610;50.006;7.490;2023-04-06T06:30:51;7.30;99.90
9151;DHT22;4610;50.006;7.490;2023-04-06T06:33:20;7.50;99.90
9151;DHT22;4610;50.006;7.490;2023-04-06T06:35:46;7.70;99.90
9151;DHT22;4610;50.006;7.490;2023-04-06T06:38:13;8.20;99.90
9151;DHT22;4610;50.006;7.490;2023-04-06T06:40:40;8.40;99.90
9151;DHT22;4610;50.006;7.490;2023-04-06T06:43:07;8.90;99.90
9151;DHT22;4610;50.006;7.490;2023-04-06T06:45:34;9.10;99.90
9151;DHT22;4610;50.006;7.490;2023-04-06T06:48:01;9.40;99.90
9151;DHT22;4610;50.006;7.490;2023-04-06T06:50:30;9.40;99.90
9151;DHT22;4610;50.006;7.490;2023-04-06T06:52:57;9.30;99.60
9151;DHT22;4610;50.006;7.490;2023-04-06T06:55:23;9.10;98.50
9151;DHT22;4610;50.006;7.490;2023-04-06T06:57:51;9.20;98.60
9151;DHT22;4610;50.006;7.490;2023-04-06T07:00:18;9.50;98.90
9151;DHT22;4610;50.006;7.490;2023-04-06T07:02:46;10.10;97.90
9151;DHT22;4610;50.006;7.490;2023-04-06T07:05:13;10.30;97.20
9151;DHT22;4610;50.006;7.490;2023-04-06T07:07:41;10.50;97.10
9151;DHT22;4610;50.006;7.490;2023-04-06T07:10:10;11.10;96.20
9151;DHT22;4610;50.006;7.490;2023-04-06T07:12:37;11.50;95.50
9151;DHT22;4610;50.006;7.490;2023-04-06T07:15:04;11.70;95.10
9151;DHT22;4610;50.006;7.490;2023-04-06T07:17:31;12.00;94.10
9151;DHT22;4610;50.006;7.490;2023-04-06T07:19:58;12.20;94.40
9151;DHT22;4610;50.006;7.490;2023-04-06T07:22:25;13.10;94.50
9151;DHT22;4610;50.006;7.490;2023-04-06T07:24:53;13.00;93.50
9151;DHT22;4610;50.006;7.490;2023-04-06T07:27:21;12.90;94.20
9151;DHT22;4610;50.006;7.490;2023-04-06T07:29:48;13.10;93.70
9151;DHT22;4610;50.006;7.490;2023-04-06T07:32:15;13.30;93.20
9151;DHT22;4610;50.006;7.490;2023-04-06T07:34:42;13.40;93.00
9151;DHT22;4610;50.006;7.490;2023-04-06T07:37:10;13.80;93.00
9151;DHT22;4610;50.006;7.490;2023-04-06T07:39:37;13.90;92.50
9151;DHT22;4610;50.006;7.490;2023-04-06T07:42:05;14.00;93.10
9151;DHT22;4610;50.006;7.490;2023-04-06T07:44:32;14.20;92.70
9151;DHT22;4610;50.006;7.490;2023-04-06T07:46:59;14.20;93.30
9151;DHT22;4610;50.006;7.490;2023-04-06T07:49:27;14.70;94.10
9151;DHT22;4610;50.006;7.490;2023-04-06T07:51:54;14.60;92.40
9151;DHT22;4610;50.006;7.490;2023-04-06T07:54:20;14.70;92.60
9151;DHT22;4610;50.006;7.490;2023-04-06T07:56:47;14.70;92.40
9151;DHT22;4610;50.006;7.490;2023-04-06T07:59:16;15.00;91.90
9151;DHT22;4610;50.006;7.490;2023-04-06T08:01:43;15.30;92.40
9151;DHT22;4610;50.006;7.490;2023-04-06T08:04:10;15.60;92.40
9151;DHT22;4610;50.006;7.490;2023-04-06T08:06:37;16.00;91.30
9151;DHT22;4610;50.006;7.490;2023-04-06T08:09:04;16.00;91.10
9151;DHT22;4610;50.006;7.490;2023-04-06T08:11:30;16.10;91.80
9151;DHT22;4610;50.006;7.490;2023-04-06T08:13:57;16.40;91.40
9151;DHT22;4610;50.006;7.490;2023-04-06T08:16:26;16.70;89.50
9151;DHT22;4610;50.006;7.490;2023-04-06T08:18:53;16.50;90.20
9151;DHT22;4610;50.006;7.490;2023-04-06T08:21:19;16.40;90.30
9151;DHT22;4610;50.006;7.490;2023-04-06T08:23:46;16.60;88.90
9151;DHT22;4610;50.006;7.490;2023-04-06T08:26:13;16.50;87.70
9151;DHT22;4610;50.006;7.490;2023-04-06T08:28:40;16.20;87.00
9151;DHT22;4610;50.006;7.490;2023-04-06T08:31:07;16.30;90.40
9151;DHT22;4610;50.006;7.490;2023-04-06T08:33:35;16.50;89.90
9151;DHT22;4610;50.006;7.490;2023-04-06T08:36:12;16.20;87.80
9151;DHT22;4610;50.006;7.490;2023-04-06T08:38:39;16.20;89.50
9151;DHT22;4610;50.006;7.490;2023-04-06T08:41:07;16.20;88.00
9151;DHT22;4610;50.006;7.490;2023-04-06T08:43:41;16.30;88.80
9151;DHT22;4610;50.006;7.490;2023-04-06T08:46:08;16.30;88.30
9151;DHT22;4610;50.006;7.490;2023-04-06T08:48:38;16.30;90.20
9151;DHT22;4610;50.006;7.490;2023-04-06T08:51:05;16.20;89.20
9151;DHT22;4610;50.006;7.490;2023-04-06T08:53:32;16.30;90.60
9151;DHT22;4610;50.006;7.490;2023-04-06T08:55:59;16.20;90.10
9151;DHT22;4610;50.006;7.490;2023-04-06T08:58:28;16.00;90.00
9151;DHT22;4610;50.006;7.490;2023-04-06T09:00:57;15.40;88.20
9151;DHT22;4610;50.006;7.490;2023-04-06T09:03:26;15.00;91.60
9151;DHT22;4610;50.006;7.490;2023-04-06T09:05:55;15.20;90.70
9151;DHT22;4610;50.006;7.490;2023-04-06T09:08:22;15.80;93.00
9151;DHT22;4610;50.006;7.490;2023-04-06T09:10:49;16.20;90.80
9151;DHT22;4610;50.006;7.490;2023-04-06T09:13:17;16.50;90.20
9151;DHT22;4610;50.006;7.490;2023-04-06T09:15:44;16.50;91.10
9151;DHT22;4610;50.006;7.490;2023-04-06T09:18:11;16.20;88.80
9151;DHT22;4610;50.006;7.490;2023-04-06T09:20:38;16.50;88.80
9151;DHT22;4610;50.006;7.490;2023-04-06T09:23:06;17.20;90.80
9151;DHT22;4610;50.006;7.490;2023-04-06T09:25:43;17.50;86.40
9151;DHT22;4610;50.006;7.490;2023-04-06T09:28:10;17.60;89.70
9151;DHT22;4610;50.006;7.490;2023-04-06T09:30:47;17.80;86.30
9151;DHT22;4610;50.006;7.490;2023-04-06T09:33:22;17.40;83.20
9151;DHT22;4610;50.006;7.490;2023-04-06T09:35:50;17.20;90.40
9151;DHT22;4610;50.006;7.490;2023-04-06T09:38:19;17.40;86.00
9151;DHT22;4610;50.006;7.490;2023-04-06T09:40:50;17.50;85.80
9151;DHT22;4610;50.006;7.490;2023-04-06T09:43:24;17.00;85.10
9151;DHT22;4610;50.006;7.490;2023-04-06T09:45:51;17.00;89.00
9151;DHT22;4610;50.006;7.490;2023-04-06T09:48:20;17.00;87.80
9151;DHT22;4610;50.006;7.490;2023-04-06T09:50:48;17.00;88.30
9151;DHT22;4610;50.006;7.490;2023-04-06T09:53:16;16.60;86.70
9151;DHT22;4610;50.006;7.490;2023-04-06T09:55:46;16.30;87.90
9151;DHT22;4610;50.006;7.490;2023-04-06T09:58:16;16.20;86.10
9151;DHT22;4610;50.006;7.490;2023-04-06T10:00:48;16.20;83.90
9151;DHT22;4610;50.006;7.490;2023-04-06T10:03:26;16.20;82.90
9151;DHT22;4610;50.006;7.490;2023-04-06T10:06:00;16.50;84.00
9151;DHT22;4610;50.006;7.490;2023-04-06T10:08:32;16.80;85.00
9151;DHT22;4610;50.006;7.490;2023-04-06T10:11:01;16.50;82.90
9151;DHT22;4610;50.006;7.490;2023-04-06T10:13:28;16.40;86.10
9151;DHT22;4610;50.006;7.490;2023-04-06T10:15:56;16.40;83.10
9151;DHT22;4610;50.006;7.490;2023-04-06T10:18:24;15.90;83.00
9151;DHT22;4610;50.006;7.490;2023-04-06T10:20:54;15.50;81.20
9151;DHT22;4610;50.006;7.490;2023-04-06T10:23:29;15.20;85.10
9151;DHT22;4610;50.006;7.490;2023-04-06T10:25:58;15.20;87.50
9151;DHT22;4610;50.006;7.490;2023-04-06T10:28:31;14.80;88.60
9151;DHT22;4610;50.006;7.490;2023-04-06T10:31:00;15.00;86.20
9151;DHT22;4610;50.006;7.490;2023-04-06T10:33:27;14.80;81.50
9151;DHT22;4610;50.006;7.490;2023-04-06T10:35:54;15.00;81.20
9151;DHT22;4610;50.006;7.490;2023-04-06T10:38:33;15.20;85.90
9151;DHT22;4610;50.006;7.490;2023-04-06T10:41:04;15.60;86.20
9151;DHT22;4610;50.006;7.490;2023-04-06T10:43:35;15.70;83.00
9151;DHT22;4610;50.006;7.490;2023-04-06T10:46:04;15.10;82.60
9151;DHT22;4610;50.006;7.490;2023-04-06T10:48:38;15.50;82.10
9151;DHT22;4610;50.006;7.490;2023-04-06T10:51:09;15.10;83.70
9151;DHT22;4610;50.006;7.490;2023-04-06T10:53:36;15.00;80.60
9151;DHT22;4610;50.006;7.490;2023-04-06T10:56:04;15.10;83.60
9151;DHT22;4610;50.006;7.490;2023-04-06T10:58:31;15.50;83.30
9151;DHT22;4610;50.006;7.490;2023-04-06T11:01:00;15.40;82.40
9151;DHT22;4610;50.006;7.490;2023-04-06T11:03:26;15.50;83.40
9151;DHT22;4610;50.006;7.490;2023-04-06T11:05:54;15.30;79.40
9151;DHT22;4610;50.006;7.490;2023-04-06T11:08:29;15.80;84.30
9151;DHT22;4610;50.006;7.490;2023-04-06T11:11:06;16.00;80.00
9151;DHT22;4610;50.006;7.490;2023-04-06T11:13:39;15.90;79.10
9151;DHT22;4610;50.006;7.490;2023-04-06T11:16:11;15.00;84.50
9151;DHT22;4610;50.006;7.490;2023-04-06T11:18:46;15.00;84.70
9151;DHT22;4610;50.006;7.490;2023-04-06T11:21:13;15.20;80.90
9151;DHT22;4610;50.006;7.490;2023-04-06T11:23:40;15.20;84.80
9151;DHT22;4610;50.006;7.490;2023-04-06T11:26:10;15.50;81.80
9151;DHT22;4610;50.006;7.490;2023-04-06T11:28:38;15.30;82.90
9151;DHT22;4610;50.006;7.490;2023-04-06T11:31:07;15.20;83.30
9151;DHT22;4610;50.006;7.490;2023-04-06T11:33:37;15.10;87.50
9151;DHT22;4610;50.006;7.490;2023-04-06T11:36:06;15.20;84.80
9151;DHT22;4610;50.006;7.490;2023-04-06T11:38:33;15.20;87.40
9151;DHT22;4610;50.006;7.490;2023-04-06T11:41:01;15.60;89.40
9151;DHT22;4610;50.006;7.490;2023-04-06T11:43:28;15.80;84.80
9151;DHT22;4610;50.006;7.490;2023-04-06T11:46:02;14.90;85.60
9151;DHT22;4610;50.006;7.490;2023-04-06T11:48:31;14.50;88.30
9151;DHT22;4610;50.006;7.490;2023-04-06T11:50:59;15.00;88.20
9151;DHT22;4610;50.006;7.490;2023-04-06T11:53:27;14.90;87.80
9151;DHT22;4610;50.006;7.490;2023-04-06T11:55:54;14.40;86.60
9151;DHT22;4610;50.006;7.490;2023-04-06T11:58:21;14.60;87.10
9151;DHT22;4610;50.006;7.490;2023-04-06T12:00:48;14.20;87.60
9151;DHT22;4610;50.006;7.490;2023-04-06T12:03:15;13.90;82.10
9151;DHT22;4610;50.006;7.490;2023-04-06T12:05:44;14.00;85.20
9151;DHT22;4610;50.006;7.490;2023-04-06T12:08:11;14.30;86.10
9151;DHT22;4610;50.006;7.490;2023-04-06T12:10:38;14.10;85.40
9151;DHT22;4610;50.006;7.490;2023-04-06T12:13:05;13.60;84.60
9151;DHT22;4610;50.006;7.490;2023-04-06T12:15:32;13.30;86.60
9151;DHT22;4610;50.006;7.490;2023-04-06T12:17:59;13.40;91.00
9151;DHT22;4610;50.006;7.490;2023-04-06T12:20:26;13.10;88.50
9151;DHT22;4610;50.006;7.490;2023-04-06T12:22:54;12.80;87.10
9151;DHT22;4610;50.006;7.490;2023-04-06T12:25:21;12.80;89.70
9151;DHT22;4610;50.006;7.490;2023-04-06T12:27:48;13.00;90.20
9151;DHT22;4610;50.006;7.490;2023-04-06T12:30:15;13.40;86.60
9151;DHT22;4610;50.006;7.490;2023-04-06T12:32:42;13.60;87.60
9151;DHT22;4610;50.006;7.490;2023-04-06T12:35:09;13.90;89.30
9151;DHT22;4610;50.006;7.490;2023-04-06T12:37:37;14.00;86.90
9151;DHT22;4610;50.006;7.490;2023-04-06T12:40:07;14.40;87.10
9151;DHT22;4610;50.006;7.490;2023-04-06T12:42:36;14.80;86.30
9151;DHT22;4610;50.006;7.490;2023-04-06T12:45:03;14.80;85.00
9151;DHT22;4610;50.006;7.490;2023-04-06T12:47:30;14.90;84.00
9151;DHT22;4610;50.006;7.490;2023-04-06T12:49:57;14.50;85.80
9151;DHT22;4610;50.006;7.490;2023-04-06T12:52:24;14.10;88.60
9151;DHT22;4610;50.006;7.490;2023-04-06T12:54:50;14.20;86.60
9151;DHT22;4610;50.006;7.490;2023-04-06T12:57:19;14.30;89.40
9151;DHT22;4610;50.006;7.490;2023-04-06T12:59:46;13.70;89.30
9151;DHT22;4610;50.006;7.490;2023-04-06T13:02:13;13.80;90.00
9151;DHT22;4610;50.006;7.490;2023-04-06T13:04:40;13.80;85.40
9151;DHT22;4610;50.006;7.490;2023-04-06T13:07:07;13.60;88.20
9151;DHT22;4610;50.006;7.490;2023-04-06T13:09:34;13.20;86.20
9151;DHT22;4610;50.006;7.490;2023-04-06T13:12:01;13.10;90.40
9151;DHT22;4610;50.006;7.490;2023-04-06T13:14:29;13.20;90.10
9151;DHT22;4610;50.006;7.490;2023-04-06T13:16:57;13.20;91.50
9151;DHT22;4610;50.006;7.490;2023-04-06T13:19:25;12.90;90.00
9151;DHT22;4610;50.006;7.490;2023-04-06T13:21:53;12.90;90.10
9151;DHT22;4610;50.006;7.490;2023-04-06T13:24:21;13.00;89.50
9151;DHT22;4610;50.006;7.490;2023-04-06T13:26:48;13.10;89.30
9151;DHT22;4610;50.006;7.490;2023-04-06T13:29:16;13.50;90.30
9151;DHT22;4610;50.006;7.490;2023-04-06T13:31:44;13.20;90.20
9151;DHT22;4610;50.006;7.490;2023-04-06T13:34:11;13.20;90.20
9151;DHT22;4610;50.006;7.490;2023-04-06T13:36:38;13.00;90.90
9151;DHT22;4610;50.006;7.490;2023-04-06T13:39:07;13.10;91.70
9151;DHT22;4610;50.006;7.490;2023-04-06T13:41:34;13.50;91.90
9151;DHT22;4610;50.006;7.490;2023-04-06T13:44:00;13.80;91.90
9151;DHT22;4610;50.006;7.490;2023-04-06T13:46:27;14.10;91.30
9151;DHT22;4610;50.006;7.490;2023-04-06T13:48:56;14.40;90.50
9151;DHT22;4610;50.006;7.490;2023-04-06T13:51:23;14.50;89.60
9151;DHT22;4610;50.006;7.490;2023-04-06T13:53:50;14.40;90.90
9151;DHT22;4610;50.006;7.490;2023-04-06T13:56:18;14.50;91.00
9151;DHT22;4610;50.006;7.490;2023-04-06T13:58:45;14.50;91.50
9151;DHT22;4610;50.006;7.490;2023-04-06T14:01:11;14.60;91.80
9151;DHT22;4610;50.006;7.490;2023-04-06T14:03:38;14.60;92.00
9151;DHT22;4610;50.006;7.490;2023-04-06T14:06:12;14.60;91.80
9151;DHT22;4610;50.006;7.490;2023-04-06T14:08:39;14.40;91.70
9151;DHT22;4610;50.006;7.490;2023-04-06T14:11:06;14.40;91.20
9151;DHT22;4610;50.006;7.490;2023-04-06T14:13:34;14.50;91.20
9151;DHT22;4610;50.006;7.490;2023-04-06T14:16:01;14.60;90.90
9151;DHT22;4610;50.006;7.490;2023-04-06T14:18:28;14.20;90.90
9151;DHT22;4610;50.006;7.490;2023-04-06T14:20:56;13.50;91.90
9151;DHT22;4610;50.006;7.490;2023-04-06T14:23:25;13.60;91.50
9151;DHT22;4610;50.006;7.490;2023-04-06T14:26:00;13.60;92.90
9151;DHT22;4610;50.006;7.490;2023-04-06T14:28:28;13.60;92.50
9151;DHT22;4610;50.006;7.490;2023-04-06T14:30:54;13.50;92.50
9151;DHT22;4610;50.006;7.490;2023-04-06T14:33:21;13.40;92.40
9151;DHT22;4610;50.006;7.490;2023-04-06T14:35:48;12.90;92.40
9151;DHT22;4610;50.006;7.490;2023-04-06T14:38:15;12.80;93.10
9151;DHT22;4610;50.006;7.490;2023-04-06T14:40:43;12.60;92.60
9151;DHT22;4610;50.006;7.490;2023-04-06T14:43:09;12.50;94.00
9151;DHT22;4610;50.006;7.490;2023-04-06T14:45:36;12.50;94.50
9151;DHT22;4610;50.006;7.490;2023-04-06T14:48:04;12.70;94.90
9151;DHT22;4610;50.006;7.490;2023-04-06T14:50:32;12.80;94.40
9151;DHT22;4610;50.006;7.490;2023-04-06T14:52:59;12.80;94.60
9151;DHT22;4610;50.006;7.490;2023-04-06T14:55:26;12.80;94.50
9151;DHT22;4610;50.006;7.490;2023-04-06T14:57:55;12.80;95.10
9151;DHT22;4610;50.006;7.490;2023-04-06T15:00:22;12.80;95.70
9151;DHT22;4610;50.006;7.490;2023-04-06T15:02:48;12.40;95.00
9151;DHT22;4610;50.006;7.490;2023-04-06T15:05:16;12.00;95.70
9151;DHT22;4610;50.006;7.490;2023-04-06T15:07:42;11.60;97.70
9151;DHT22;4610;50.006;7.490;2023-04-06T15:10:10;11.10;97.00
9151;DHT22;4610;50.006;7.490;2023-04-06T15:12:37;11.10;98.00
9151;DHT22;4610;50.006;7.490;2023-04-06T15:15:06;11.10;99.20
9151;DHT22;4610;50.006;7.490;2023-04-06T15:17:33;11.20;98.50
9151;DHT22;4610;50.006;7.490;2023-04-06T15:20:00;10.80;98.90
9151;DHT22;4610;50.006;7.490;2023-04-06T15:22:27;10.60;99.90
9151;DHT22;4610;50.006;7.490;2023-04-06T15:24:54;10.80;99.90
9151;DHT22;4610;50.006;7.490;2023-04-06T15:27:20;10.70;99.90
9151;DHT22;4610;50.006;7.490;2023-04-06T15:29:47;10.90;99.90
9151;DHT22;4610;50.006;7.490;2023-04-06T15:32:15;11.00;99.90
9151;DHT22;4610;50.006;7.490;2023-04-06T15:34:42;10.90;99.90
9151;DHT22;4610;50.006;7.490;2023-04-06T15:37:09;10.80;99.90
9151;DHT22;4610;50.006;7.490;2023-04-06T15:39:36;10.90;99.90
9151;DHT22;4610;50.006;7.490;2023-04-06T15:42:03;11.00;99.90
9151;DHT22;4610;50.006;7.490;2023-04-06T15:44:29;11.00;99.90
9151;DHT22;4610;50.006;7.490;2023-04-06T15:46:56;11.10;99.90
9151;DHT22;4610;50.006;7.490;2023-04-06T15:49:24;11.10;99.90
9151;DHT22;4610;50.006;7.490;2023-04-06T15:51:51;11.10;99.90
9151;DHT22;4610;50.006;7.490;2023-04-06T15:54:18;11.00;99.90
9151;DHT22;4610;50.006;7.490;2023-04-06T15:56:46;10.80;99.90
9151;DHT22;4610;50.006;7.490;2023-04-06T15:59:13;11.30;99.90
9151;DHT22;4610;50.006;7.490;2023-04-06T16:01:40;11.70;99.90
9151;DHT22;4610;50.006;7.490;2023-04-06T16:04:07;11.90;99.90
9151;DHT22;4610;50.006;7.490;2023-04-06T16:06:37;11.50;99.90